createdAt,value
2023-03-15T00:02:03.250Z,0
2023-03-15T00:07:07.325Z,0
2023-03-15T00:12:11.510Z,0
2023-03-15T00:17:15.692Z,0
2023-03-15T00:22:19.797Z,0
2023-03-15T00:27:23.984Z,0
2023-03-15T00:32:28.199Z,0
2023-03-15T00:37:32.301Z,0
2023-03-15T00:42:36.509Z,0
2023-03-15T00:47:40.762Z,0
2023-03-15T00:52:44.786Z,0
2023-03-15T00:57:47.107Z,0
2023-03-15T01:02:51.326Z,0
2023-03-15T01:07:55.456Z,0
2023-03-15T01:12:59.577Z,0
2023-03-15T01:18:03.754Z,0
2023-03-15T01:23:08.031Z,0
2023-03-15T01:28:12.067Z,0
2023-03-15T01:33:16.230Z,0
2023-03-15T01:38:20.482Z,0
2023-03-15T01:43:24.575Z,0
2023-03-15T01:48:28.775Z,0
2023-03-15T01:53:32.900Z,0
2023-03-15T01:58:37.110Z,0
2023-03-15T02:03:41.243Z,0
2023-03-15T02:08:45.391Z,0
2023-03-15T02:13:49.599Z,0
2023-03-15T02:18:53.731Z,0
2023-03-15T02:23:57.879Z,0
2023-03-15T02:29:02.074Z,0
2023-03-15T02:34:06.209Z,0
2023-03-15T02:39:10.385Z,0
2023-03-15T02:44:12.679Z,0
2023-03-15T02:49:16.829Z,0
2023-03-15T02:54:19.097Z,0
2023-03-15T02:59:23.260Z,0
2023-03-15T03:04:27.440Z,0
2023-03-15T03:09:29.669Z,0
2023-03-15T03:14:33.871Z,0
2023-03-15T03:19:38.014Z,0
2023-03-15T03:24:42.185Z,0
2023-03-15T03:29:46.349Z,0
2023-03-15T03:34:50.592Z,0
2023-03-15T03:39:54.708Z,0
2023-03-15T03:44:58.857Z,0
2023-03-15T03:55:07.175Z,0
2023-03-15T04:00:11.345Z,0
2023-03-15T04:05:15.524Z,0
2023-03-15T04:10:19.658Z,0
2023-03-15T04:20:28.005Z,0
2023-03-15T04:25:30.292Z,0
2023-03-15T04:30:32.710Z,0
2023-03-15T04:35:43.789Z,0
2023-03-15T04:40:54.929Z,0
2023-03-15T04:46:06.092Z,0
2023-03-15T04:51:17.247Z,0
2023-03-15T04:56:28.404Z,0
2023-03-15T05:01:39.577Z,0
2023-03-15T05:06:41.882Z,0
2023-03-15T05:11:46.056Z,0
2023-03-15T05:16:50.188Z,0
2023-03-15T05:21:54.371Z,0
2023-03-15T05:26:58.494Z,0
2023-03-15T05:32:02.780Z,3
2023-03-15T05:37:06.867Z,15
2023-03-15T05:42:11.019Z,30
2023-03-15T05:47:15.221Z,35
2023-03-15T05:52:19.370Z,58
2023-03-15T05:57:23.541Z,82
2023-03-15T06:02:27.663Z,142
2023-03-15T06:07:31.850Z,260
2023-03-15T06:12:36.026Z,296
2023-03-15T06:17:40.169Z,476
2023-03-15T06:22:44.358Z,469
2023-03-15T06:27:48.502Z,388
2023-03-15T06:32:52.663Z,418
2023-03-15T06:37:56.844Z,641
2023-03-15T06:43:00.986Z,514
2023-03-15T06:48:05.146Z,589
2023-03-15T06:53:07.431Z,810
2023-03-15T06:58:11.588Z,1150
2023-03-15T07:03:13.880Z,930
2023-03-15T07:08:18.054Z,1855
2023-03-15T07:13:22.180Z,958
2023-03-15T07:18:26.339Z,1330
2023-03-15T07:23:30.551Z,1493
2023-03-15T07:28:34.733Z,2564
2023-03-15T07:33:38.871Z,1900
2023-03-15T07:38:43.416Z,1605
2023-03-15T07:43:47.161Z,2384
2023-03-15T07:48:51.350Z,3262
2023-03-15T07:53:55.532Z,4173
2023-03-15T07:58:59.664Z,2833
2023-03-15T08:04:03.859Z,3013
2023-03-15T08:09:08.002Z,7288
2023-03-15T08:14:12.182Z,6328
2023-03-15T08:19:16.313Z,6266
2023-03-15T08:24:20.482Z,4575
2023-03-15T08:29:24.687Z,5667
2023-03-15T08:34:28.836Z,6921
2023-03-15T08:39:32.965Z,4070
2023-03-15T08:44:37.143Z,2800
2023-03-15T08:49:39.408Z,3802
2023-03-15T08:54:43.564Z,4736
2023-03-15T08:59:47.780Z,3840
2023-03-15T09:04:52.387Z,4659
2023-03-15T09:09:54.188Z,3939
2023-03-15T09:14:58.316Z,3263
2023-03-15T09:20:02.524Z,3381
2023-03-15T09:25:06.696Z,3626
2023-03-15T09:30:10.862Z,7927
2023-03-15T09:35:15.028Z,7510
2023-03-15T09:40:19.161Z,4225
2023-03-15T09:45:23.329Z,5505
2023-03-15T09:50:27.480Z,8663
2023-03-15T09:55:31.693Z,5297
2023-03-15T10:00:35.824Z,3349
2023-03-15T10:05:39.996Z,5765
2023-03-15T10:10:44.183Z,4116
2023-03-15T10:15:48.334Z,3508
2023-03-15T10:20:52.496Z,3287
2023-03-15T10:25:56.661Z,4250
2023-03-15T10:31:00.896Z,5602
2023-03-15T10:36:11.098Z,5230
2023-03-15T10:41:10.007Z,6489
2023-03-15T10:46:13.354Z,7396
2023-03-15T10:51:15.590Z,6639
2023-03-15T10:56:19.763Z,5600
2023-03-15T11:01:22.066Z,4271
2023-03-15T11:06:26.160Z,6618
2023-03-15T11:11:30.336Z,9665
2023-03-15T11:16:34.536Z,5676
2023-03-15T11:21:38.632Z,8510
2023-03-15T11:26:42.799Z,5185
2023-03-15T11:31:47.063Z,3755
2023-03-15T11:37:05.351Z,4556
2023-03-15T11:46:59.529Z,6130
2023-03-15T11:52:03.630Z,6700
2023-03-15T11:57:07.795Z,3706
2023-03-15T12:02:12.049Z,5025
2023-03-15T12:07:16.082Z,3104
2023-03-15T12:12:20.248Z,2903
2023-03-15T12:17:24.487Z,2647
2023-03-15T12:22:28.610Z,2921
2023-03-15T12:32:36.981Z,4020
2023-03-15T12:37:39.182Z,3811
2023-03-15T12:43:14.124Z,4218
2023-03-15T12:48:01.489Z,3656
2023-03-15T12:53:12.702Z,3285
2023-03-15T12:58:23.885Z,3547
2023-03-15T13:03:35.197Z,3895
2023-03-15T13:08:46.248Z,4894
2023-03-15T13:13:55.482Z,6139
2023-03-15T13:18:59.652Z,5905
2023-03-15T13:24:03.781Z,4154
2023-03-15T13:29:07.982Z,4142
2023-03-15T13:34:12.121Z,3680
2023-03-15T13:44:20.477Z,3306
2023-03-15T13:49:24.603Z,4140
2023-03-15T13:54:28.760Z,2810
2023-03-15T13:59:32.952Z,3014
2023-03-15T14:04:37.077Z,3095
2023-03-15T14:09:41.248Z,3324
2023-03-15T14:14:45.450Z,2595
2023-03-15T14:19:49.611Z,2503
2023-03-15T14:24:53.735Z,2838
2023-03-15T14:29:57.913Z,3156
2023-03-15T14:35:02.121Z,3407
2023-03-15T14:40:06.238Z,2903
2023-03-15T14:45:10.470Z,2920
2023-03-15T14:50:14.853Z,2852
2023-03-15T15:00:22.889Z,3572
2023-03-15T15:05:29.962Z,3730
2023-03-15T15:10:29.546Z,3510
2023-03-15T15:15:40.739Z,3365
2023-03-15T15:20:35.733Z,3350
2023-03-15T15:25:39.904Z,3022
2023-03-15T15:30:44.068Z,3253
2023-03-15T15:35:48.226Z,3573
2023-03-15T15:40:52.395Z,3649
2023-03-15T15:45:56.612Z,3085
2023-03-15T15:51:00.723Z,2900
2023-03-15T15:56:05.052Z,2897
2023-03-15T16:01:09.044Z,4714
2023-03-15T16:06:13.205Z,4645
2023-03-15T16:11:17.328Z,4720
2023-03-15T16:16:21.596Z,4488
2023-03-15T16:21:25.628Z,3474
2023-03-15T16:26:29.822Z,2872
2023-03-15T16:31:34.091Z,2190
2023-03-15T16:36:38.172Z,2173
2023-03-15T16:41:42.335Z,2054
2023-03-15T16:46:46.594Z,1974
2023-03-15T16:51:50.656Z,1834
2023-03-15T16:56:54.790Z,1565
2023-03-15T17:01:59.088Z,1292
2023-03-15T17:07:01.250Z,1107
2023-03-15T17:12:05.377Z,891
2023-03-15T17:17:07.663Z,693
2023-03-15T17:22:11.871Z,515
2023-03-15T17:27:16.027Z,358
2023-03-15T17:32:20.192Z,236
2023-03-15T17:37:24.355Z,150
2023-03-15T17:47:32.689Z,53
2023-03-15T17:52:36.798Z,24
2023-03-15T17:57:45.771Z,9
2023-03-15T18:07:58.181Z,0
2023-03-15T18:12:53.468Z,0
2023-03-15T18:17:57.654Z,0
2023-03-15T18:22:59.922Z,0
2023-03-15T18:28:11.111Z,0
2023-03-15T18:33:22.272Z,0
2023-03-15T18:38:33.470Z,0
2023-03-15T18:43:44.608Z,0
2023-03-15T18:48:55.755Z,0
2023-03-15T18:54:06.942Z,0
2023-03-15T18:59:09.202Z,0
2023-03-15T19:04:13.360Z,0
2023-03-15T19:09:17.536Z,0
2023-03-15T19:14:21.720Z,0
2023-03-15T19:19:25.857Z,0
2023-03-15T19:24:30.026Z,0
2023-03-15T19:29:34.210Z,0
2023-03-15T19:34:38.359Z,0
2023-03-15T19:39:42.535Z,0
2023-03-15T19:44:46.721Z,0
2023-03-15T19:49:50.854Z,0
2023-03-15T19:54:55.041Z,0
2023-03-15T19:59:59.188Z,0
2023-03-15T20:05:03.517Z,0
2023-03-15T20:10:07.532Z,0
2023-03-15T20:15:11.695Z,0
2023-03-15T20:20:15.843Z,0
2023-03-15T20:25:20.021Z,0
2023-03-15T20:30:24.868Z,0
2023-03-15T20:35:28.364Z,0
2023-03-15T20:40:32.499Z,0
2023-03-15T20:45:34.797Z,0
2023-03-15T20:50:38.942Z,0
2023-03-15T20:55:43.098Z,0
2023-03-15T21:00:47.340Z,0
2023-03-15T21:10:55.643Z,0
2023-03-15T21:15:59.858Z,0
2023-03-15T21:21:03.941Z,0
2023-03-15T21:26:08.113Z,0
2023-03-15T21:31:10.449Z,0
2023-03-15T21:36:14.651Z,0
2023-03-15T21:41:18.720Z,0
2023-03-15T21:46:22.882Z,0
2023-03-15T21:51:27.045Z,0
2023-03-15T21:56:31.263Z,0
2023-03-15T22:01:35.391Z,0
2023-03-15T22:06:39.530Z,0
2023-03-15T22:11:43.712Z,0
2023-03-15T22:16:47.872Z,0
2023-03-15T22:21:52.021Z,0
2023-03-15T22:26:56.195Z,0
2023-03-15T22:32:00.338Z,0
2023-03-15T22:37:02.639Z,0
2023-03-15T22:42:06.792Z,0
2023-03-15T22:47:09.084Z,0
2023-03-15T22:52:13.273Z,0
2023-03-15T22:57:17.417Z,0
2023-03-15T23:02:21.541Z,0
2023-03-15T23:07:25.738Z,0
2023-03-15T23:12:35.800Z,0
2023-03-15T23:17:34.041Z,0
2023-03-15T23:22:38.223Z,0
2023-03-15T23:27:42.395Z,0
2023-03-15T23:32:46.813Z,0
2023-03-15T23:37:50.746Z,0
2023-03-15T23:42:54.913Z,0
2023-03-15T23:47:59.066Z,0
2023-03-15T23:53:03.254Z,0
2023-03-15T23:58:07.372Z,0
